Time;durP1;ratioP1;P1;durP2;ratioP2;P2;SDS_P1;SDS_P2;PMS_P1;PMS_P2;Temp;Humidity;BMP_temperature;BMP_pressure;BME280_temperature;BME280_humidity;BME280_pressure;Samples;Min_cycle;Max_cycle;Signal;HPM_P1;HPM_P2
2024/01/28 00:01:57;;;;;;;22.88;10.02;;;1.10;99.90;;;;;;4998555;28;20493;-88
2024/01/28 00:04:23;;;;;;;23.08;9.60;;;1.70;99.90;;;;;;4997766;28;20405;-89
2024/01/28 00:06:48;;;;;;;19.17;9.73;;;1.10;99.90;;;;;;5008890;28;20045;-88
2024/01/28 00:09:14;;;;;;;14.93;8.52;;;1.10;99.90;;;;;;5016629;28;20064;-88
2024/01/28 00:11:42;;;;;;;23.10;10.40;;;1.10;99.90;;;;;;4993300;28;20120;-88
2024/01/28 00:14:09;;;;;;;27.60;9.88;;;1.10;99.90;;;;;;5013062;28;20074;-88
2024/01/28 00:16:34;;;;;;;23.27;9.25;;;1.10;99.90;;;;;;4992458;28;20037;-88
2024/01/28 00:19:00;;;;;;;20.30;9.43;;;1.10;99.90;;;;;;4991159;28;20037;-88
2024/01/28 00:21:26;;;;;;;18.42;9.68;;;1.10;99.90;;;;;;5015800;28;20061;-88
2024/01/28 00:23:52;;;;;;;21.83;9.98;;;2.40;99.90;;;;;;4989520;28;20497;-89
2024/01/28 00:26:18;;;;;;;21.23;10.68;;;2.40;99.90;;;;;;4991069;28;20049;-88
2024/01/28 00:28:43;;;;;;;19.13;9.40;;;1.10;99.90;;;;;;5012358;28;20120;-88
2024/01/28 00:31:10;;;;;;;22.80;9.90;;;1.10;99.90;;;;;;5022449;28;20574;-89
2024/01/28 00:33:35;;;;;;;29.05;9.60;;;1.10;99.90;;;;;;5019961;28;20045;-88
2024/01/28 00:36:01;;;;;;;21.92;10.80;;;1.10;99.90;;;;;;5000566;28;20104;-89
2024/01/28 00:38:31;;;;;;;22.05;9.45;;;1.10;99.90;;;;;;4997163;28;20044;-88
2024/01/28 00:40:58;;;;;;;18.70;9.90;;;1.10;99.90;;;;;;5011920;28;20073;-90
2024/01/28 00:43:24;;;;;;;20.70;8.85;;;1.10;99.90;;;;;;5023909;28;20032;-89
2024/01/28 00:45:50;;;;;;;21.02;9.45;;;1.60;99.90;;;;;;5002749;28;20132;-89
2024/01/28 00:48:15;;;;;;;21.20;8.80;;;2.40;99.90;;;;;;5021591;28;20037;-89
2024/01/28 00:50:41;;;;;;;21.05;9.57;;;1.10;99.90;;;;;;4998578;28;20038;-88
2024/01/28 00:53:06;;;;;;;17.13;9.20;;;1.10;99.90;;;;;;4996914;28;20036;-88
2024/01/28 00:55:32;;;;;;;18.33;8.48;;;1.10;99.90;;;;;;5020035;28;20048;-89
2024/01/28 00:57:58;;;;;;;14.93;8.57;;;2.40;99.90;;;;;;5003315;28;20048;-88
2024/01/28 01:00:25;;;;;;;15.60;8.98;;;1.10;99.90;;;;;;5001717;28;20043;-89
2024/01/28 01:02:52;;;;;;;19.85;9.63;;;1.10;99.90;;;;;;5002037;28;20050;-89
2024/01/28 01:05:18;;;;;;;18.63;8.32;;;1.10;99.90;;;;;;4992657;28;20034;-88
2024/01/28 01:07:44;;;;;;;17.98;8.02;;;1.10;99.90;;;;;;4994654;28;20380;-88
2024/01/28 01:10:09;;;;;;;18.05;8.05;;;2.30;99.90;;;;;;4997408;28;20179;-89
2024/01/28 01:12:35;;;;;;;18.85;8.45;;;1.20;99.90;;;;;;5041024;28;20045;-88
2024/01/28 01:15:01;;;;;;;17.30;8.60;;;2.00;99.90;;;;;;5014065;28;20029;-89
2024/01/28 01:17:27;;;;;;;16.85;7.93;;;1.20;99.90;;;;;;5010157;28;20036;-89
2024/01/28 01:19:53;;;;;;;22.23;8.18;;;1.10;99.90;;;;;;5018888;28;20584;-88
2024/01/28 01:22:19;;;;;;;17.90;8.73;;;1.20;99.90;;;;;;5007222;28;20116;-88
2024/01/28 01:24:44;;;;;;;18.10;7.88;;;1.20;99.90;;;;;;5008908;28;20041;-88
2024/01/28 01:27:10;;;;;;;21.55;8.20;;;1.20;99.90;;;;;;5006378;28;20091;-88
2024/01/28 01:29:36;;;;;;;13.73;8.43;;;1.20;99.90;;;;;;4995639;28;20038;-88
2024/01/28 01:32:02;;;;;;;18.33;8.38;;;1.20;99.90;;;;;;4998335;28;20515;-88
2024/01/28 01:34:27;;;;;;;20.25;8.77;;;1.20;99.90;;;;;;5006402;28;20037;-88
2024/01/28 01:36:53;;;;;;;17.58;7.60;;;1.20;99.90;;;;;;5019623;28;20040;-88
2024/01/28 01:39:19;;;;;;;20.73;8.95;;;1.20;99.90;;;;;;4999805;28;20523;-88
2024/01/28 01:41:44;;;;;;;12.65;7.68;;;1.10;99.90;;;;;;5008933;28;20034;-89
2024/01/28 01:44:11;;;;;;;15.23;7.90;;;1.20;99.90;;;;;;5008293;28;20050;-88
2024/01/28 01:46:37;;;;;;;18.30;7.82;;;1.10;99.90;;;;;;4991305;28;20049;-88
2024/01/28 01:49:04;;;;;;;20.67;8.50;;;1.10;99.90;;;;;;5006777;28;20164;-89
2024/01/28 01:51:30;;;;;;;16.98;7.93;;;1.10;99.90;;;;;;5015898;28;20693;-89
2024/01/28 01:53:57;;;;;;;16.45;7.97;;;1.10;99.90;;;;;;4999565;28;20041;-87
2024/01/28 01:56:24;;;;;;;15.45;8.25;;;1.10;99.90;;;;;;5015649;28;20459;-88
2024/01/28 01:58:51;;;;;;;19.30;8.65;;;1.10;99.90;;;;;;5013662;28;20037;-88
2024/01/28 02:01:17;;;;;;;20.65;9.00;;;1.20;99.90;;;;;;5022200;28;20036;-88
2024/01/28 02:03:43;;;;;;;17.67;8.15;;;1.20;99.90;;;;;;5018432;28;20425;-89
2024/01/28 02:06:13;;;;;;;18.23;8.40;;;1.10;99.90;;;;;;5001682;28;20037;-88
2024/01/28 02:08:40;;;;;;;21.35;8.60;;;1.10;99.90;;;;;;5020542;28;20037;-88
2024/01/28 02:11:06;;;;;;;17.43;8.67;;;1.10;99.90;;;;;;5018948;28;20045;-88
2024/01/28 02:13:32;;;;;;;15.67;8.47;;;1.10;99.90;;;;;;5014021;28;20065;-88
2024/01/28 02:15:59;;;;;;;18.58;9.05;;;1.20;99.90;;;;;;5021240;28;20057;-87
2024/01/28 02:18:25;;;;;;;20.33;8.30;;;1.20;99.90;;;;;;4995355;28;20510;-88
2024/01/28 02:20:50;;;;;;;17.35;8.43;;;1.20;99.90;;;;;;5004134;28;20084;-88
2024/01/28 02:23:21;;;;;;;22.60;9.07;;;1.20;99.90;;;;;;4997420;28;20124;-88
2024/01/28 02:25:47;;;;;;;15.60;9.02;;;1.10;99.90;;;;;;5022928;28;20118;-88
2024/01/28 02:28:13;;;;;;;22.77;8.95;;;1.20;99.90;;;;;;5016165;28;20056;-88
2024/01/28 02:30:38;;;;;;;16.90;8.85;;;1.20;99.90;;;;;;5025207;28;20037;-88
2024/01/28 02:33:04;;;;;;;18.02;8.32;;;1.20;99.90;;;;;;5036149;28;20038;-88
2024/01/28 02:35:30;;;;;;;19.20;8.63;;;1.90;99.90;;;;;;5037828;28;20036;-88
2024/01/28 02:37:55;;;;;;;20.27;9.07;;;2.00;99.90;;;;;;5017018;28;20120;-89
2024/01/28 02:40:21;;;;;;;18.30;8.90;;;1.20;99.90;;;;;;5017188;28;20116;-88
2024/01/28 02:42:47;;;;;;;20.40;9.45;;;1.20;99.90;;;;;;5015992;28;20421;-88
2024/01/28 02:45:13;;;;;;;18.50;9.23;;;1.20;99.90;;;;;;5013022;28;20107;-88
2024/01/28 02:47:38;;;;;;;19.83;9.20;;;1.20;99.90;;;;;;5016723;28;20468;-89
2024/01/28 02:50:05;;;;;;;20.90;8.68;;;1.20;99.90;;;;;;4991236;28;20081;-88
2024/01/28 02:52:31;;;;;;;23.65;9.15;;;1.20;99.90;;;;;;4993274;28;20080;-88
2024/01/28 02:54:56;;;;;;;18.27;9.10;;;1.20;99.90;;;;;;5014421;28;20037;-89
2024/01/28 02:57:22;;;;;;;18.55;9.38;;;1.30;99.90;;;;;;4997606;28;20568;-89
2024/01/28 02:59:47;;;;;;;16.20;8.88;;;1.20;99.90;;;;;;4993000;28;20475;-89
2024/01/28 03:02:13;;;;;;;23.38;9.85;;;1.30;99.90;;;;;;5003845;28;20117;-89
2024/01/28 03:04:39;;;;;;;21.73;9.57;;;1.30;99.90;;;;;;5014356;28;20041;-88
2024/01/28 03:07:06;;;;;;;16.67;9.45;;;1.30;99.90;;;;;;5000897;28;20060;-88
2024/01/28 03:09:31;;;;;;;16.40;9.68;;;1.30;99.90;;;;;;5010369;28;20096;-88
2024/01/28 03:11:57;;;;;;;17.75;9.30;;;1.30;99.90;;;;;;5013035;28;20038;-88
2024/01/28 03:14:23;;;;;;;25.67;9.90;;;1.40;99.90;;;;;;5014187;28;20049;-88
2024/01/28 03:16:49;;;;;;;22.50;10.52;;;2.90;99.90;;;;;;4997025;28;20533;-88
2024/01/28 03:19:15;;;;;;;19.85;9.05;;;1.40;99.90;;;;;;4990673;28;20049;-89
2024/01/28 03:21:41;;;;;;;18.45;9.10;;;1.40;99.90;;;;;;5014074;28;20116;-89
2024/01/28 03:24:06;;;;;;;18.33;9.25;;;1.40;99.90;;;;;;4992851;28;20268;-89
2024/01/28 03:26:35;;;;;;;19.98;9.88;;;1.80;99.90;;;;;;5010977;28;20041;-89
2024/01/28 03:29:02;;;;;;;18.67;9.60;;;1.40;99.90;;;;;;4999394;28;20501;-89
2024/01/28 03:31:28;;;;;;;19.65;9.55;;;1.40;99.90;;;;;;4994813;28;20037;-88
2024/01/28 03:33:54;;;;;;;24.30;9.45;;;1.40;99.90;;;;;;5013894;28;20519;-88
2024/01/28 03:36:20;;;;;;;16.42;9.60;;;2.70;99.90;;;;;;5000968;28;20034;-89
2024/01/28 03:38:45;;;;;;;17.27;10.02;;;1.50;99.90;;;;;;5006467;28;20053;-88
2024/01/28 03:41:13;;;;;;;21.40;9.97;;;3.00;99.90;;;;;;5012384;28;20493;-88
2024/01/28 03:43:39;;;;;;;20.67;9.82;;;1.40;99.90;;;;;;5019254;28;20075;-88
2024/01/28 03:46:07;;;;;;;20.23;9.20;;;1.50;99.90;;;;;;5006794;28;20120;-88
2024/01/28 03:48:32;;;;;;;18.03;9.27;;;1.40;99.90;;;;;;4985065;28;20084;-89
2024/01/28 03:50:58;;;;;;;16.48;9.00;;;1.50;99.90;;;;;;5001319;28;20042;-88
2024/01/28 03:53:24;;;;;;;17.75;9.32;;;1.50;99.90;;;;;;4993101;28;20029;-89
2024/01/28 03:55:49;;;;;;;19.07;9.57;;;1.50;99.90;;;;;;5013073;28;20083;-89
2024/01/28 03:58:15;;;;;;;14.10;8.70;;;1.50;99.90;;;;;;5013562;28;20038;-89
2024/01/28 04:00:41;;;;;;;20.52;9.90;;;1.50;99.90;;;;;;4997432;28;20076;-88
2024/01/28 04:03:06;;;;;;;19.70;9.07;;;1.50;99.90;;;;;;5006898;28;20124;-88
2024/01/28 04:05:32;;;;;;;21.67;10.20;;;1.50;99.90;;;;;;5023444;28;20080;-90
2024/01/28 04:07:58;;;;;;;18.33;9.10;;;1.50;99.90;;;;;;5008162;28;20125;-88
2024/01/28 04:10:24;;;;;;;18.30;8.40;;;1.50;99.90;;;;;;5017789;28;20045;-88
2024/01/28 04:12:50;;;;;;;22.95;9.55;;;2.70;99.90;;;;;;5017837;28;20048;-88
2024/01/28 04:15:15;;;;;;;18.35;8.93;;;1.50;99.90;;;;;;5015039;28;20493;-88
2024/01/28 04:17:41;;;;;;;19.73;9.10;;;1.80;99.90;;;;;;5011925;28;20048;-87
2024/01/28 04:20:08;;;;;;;20.27;9.52;;;1.40;99.90;;;;;;5013808;28;20544;-88
2024/01/28 04:22:34;;;;;;;15.18;8.57;;;1.40;99.90;;;;;;5031271;28;20025;-89
2024/01/28 04:25:00;;;;;;;19.00;9.80;;;1.40;99.90;;;;;;4986811;28;20037;-88
2024/01/28 04:27:26;;;;;;;20.70;9.70;;;1.40;99.90;;;;;;5011742;28;20516;-88
2024/01/28 04:29:51;;;;;;;17.20;8.98;;;1.40;99.90;;;;;;5011650;28;20088;-89
2024/01/28 04:32:17;;;;;;;18.77;9.10;;;1.40;99.90;;;;;;5004454;28;20041;-88
2024/01/28 04:34:43;;;;;;;17.10;8.85;;;2.40;99.90;;;;;;5009250;28;20465;-88
2024/01/28 04:37:08;;;;;;;16.73;8.93;;;1.30;99.90;;;;;;5015016;28;20029;-88
2024/01/28 04:39:35;;;;;;;15.00;8.17;;;1.00;99.90;;;;;;4999641;28;20037;-88
2024/01/28 04:42:01;;;;;;;15.47;8.90;;;1.80;99.90;;;;;;4992587;28;20046;-89
2024/01/28 04:44:27;;;;;;;17.57;8.80;;;1.20;99.90;;;;;;4997101;28;20446;-89
2024/01/28 04:46:55;;;;;;;17.67;9.00;;;1.20;99.90;;;;;;5008472;28;20049;-88
2024/01/28 04:49:20;;;;;;;19.40;8.53;;;1.70;99.90;;;;;;4997386;28;20079;-88
2024/01/28 04:51:46;;;;;;;17.20;8.70;;;1.20;99.90;;;;;;4991302;28;20129;-88
2024/01/28 04:54:14;;;;;;;15.93;8.60;;;1.10;99.90;;;;;;4999842;28;20041;-88
2024/01/28 04:56:40;;;;;;;15.93;8.73;;;1.10;99.90;;;;;;4998110;28;20029;-88
2024/01/28 04:59:06;;;;;;;18.57;8.90;;;1.10;99.90;;;;;;5000208;28;20043;-88
2024/01/28 05:01:33;;;;;;;20.57;9.20;;;1.10;99.90;;;;;;5022749;28;20083;-89
2024/01/28 05:04:01;;;;;;;17.47;8.97;;;1.10;99.90;;;;;;5014498;28;20490;-88
2024/01/28 05:06:34;;;;;;;20.83;8.87;;;1.10;99.90;;;;;;4997125;28;20041;-88
2024/01/28 05:09:03;;;;;;;16.75;8.50;;;1.10;99.90;;;;;;4995790;28;20038;-88
2024/01/28 05:11:28;;;;;;;16.20;8.60;;;1.00;99.90;;;;;;5007280;28;20090;-89
2024/01/28 05:13:54;;;;;;;17.33;8.50;;;1.00;99.90;;;;;;5002634;28;20515;-88
2024/01/28 05:16:20;;;;;;;19.93;8.73;;;1.00;99.90;;;;;;4993601;28;20038;-88
2024/01/28 05:18:45;;;;;;;16.17;9.13;;;1.00;99.90;;;;;;4996659;28;20048;-89
2024/01/28 05:21:11;;;;;;;16.47;8.60;;;0.90;99.90;;;;;;5016374;28;20516;-89
2024/01/28 05:23:36;;;;;;;23.73;8.83;;;0.90;99.90;;;;;;5017761;28;20037;-88
2024/01/28 05:26:02;;;;;;;15.97;8.90;;;0.90;99.90;;;;;;5018418;28;20037;-89
2024/01/28 05:28:28;;;;;;;15.70;8.97;;;0.90;99.90;;;;;;5006339;28;20041;-89
2024/01/28 05:30:53;;;;;;;17.50;8.93;;;1.80;99.90;;;;;;5005250;28;20034;-87
2024/01/28 05:33:19;;;;;;;16.30;8.27;;;0.90;99.90;;;;;;5016566;28;20120;-87
2024/01/28 05:35:44;;;;;;;16.60;8.80;;;0.80;99.90;;;;;;5014946;28;20037;-88
2024/01/28 05:38:10;;;;;;;20.10;8.83;;;0.80;99.90;;;;;;5015472;28;20034;-87
2024/01/28 05:40:36;;;;;;;15.50;9.47;;;0.80;99.90;;;;;;5000736;28;20026;-87
2024/01/28 05:43:01;;;;;;;14.83;8.60;;;0.80;99.90;;;;;;5017843;28;20037;-88
2024/01/28 05:45:27;;;;;;;19.27;8.80;;;0.80;99.90;;;;;;5018064;28;20060;-88
2024/01/28 05:47:52;;;;;;;20.00;9.20;;;0.80;99.90;;;;;;4993499;28;20040;-88
2024/01/28 05:50:18;;;;;;;18.67;9.10;;;0.80;99.90;;;;;;4999934;28;20508;-88
2024/01/28 05:52:44;;;;;;;16.87;8.63;;;0.80;99.90;;;;;;5017417;28;20064;-88
2024/01/28 05:55:09;;;;;;;14.70;8.93;;;0.70;99.90;;;;;;5020835;28;20040;-88
2024/01/28 05:57:35;;;;;;;22.03;9.47;;;0.70;99.90;;;;;;5002801;28;20041;-88
2024/01/28 06:00:00;;;;;;;19.17;9.53;;;0.70;99.90;;;;;;4989583;28;20026;-88
2024/01/28 06:02:26;;;;;;;18.23;8.70;;;0.60;99.90;;;;;;5001421;28;20060;-88
2024/01/28 06:04:52;;;;;;;15.30;8.77;;;0.60;99.90;;;;;;5012020;28;20072;-88
2024/01/28 06:07:18;;;;;;;16.43;8.57;;;0.40;99.90;;;;;;5015596;28;20029;-88
2024/01/28 06:09:44;;;;;;;15.60;8.90;;;0.60;99.90;;;;;;5017643;28;20469;-88
2024/01/28 06:12:10;;;;;;;19.13;9.60;;;0.50;99.90;;;;;;5004169;28;20041;-88
2024/01/28 06:14:35;;;;;;;16.43;8.73;;;0.50;99.90;;;;;;5015495;28;20048;-89
2024/01/28 06:17:01;;;;;;;13.53;8.50;;;0.50;99.90;;;;;;5001184;28;20087;-88
2024/01/28 06:19:27;;;;;;;15.53;9.37;;;0.50;99.90;;;;;;5005343;28;20025;-89
2024/01/28 06:21:53;;;;;;;18.33;8.07;;;0.40;99.90;;;;;;4991513;28;20069;-88
2024/01/28 06:24:18;;;;;;;14.87;8.63;;;0.40;99.90;;;;;;5002686;28;20041;-88
2024/01/28 06:26:44;;;;;;;19.27;10.03;;;0.40;99.90;;;;;;5015744;28;20233;-88
2024/01/28 06:29:10;;;;;;;19.13;9.47;;;0.30;99.90;;;;;;5007124;28;20417;-87
2024/01/28 06:31:35;;;;;;;15.87;8.97;;;0.30;99.90;;;;;;5008089;28;20041;-88
2024/01/28 06:34:01;;;;;;;16.13;9.33;;;0.30;99.90;;;;;;5010087;28;20131;-87
2024/01/28 06:36:27;;;;;;;18.20;8.27;;;0.30;99.90;;;;;;4998427;28;20056;-88
2024/01/28 06:38:54;;;;;;;18.73;9.07;;;0.20;99.90;;;;;;5017270;28;20039;-88
2024/01/28 06:41:20;;;;;;;16.27;8.83;;;0.20;99.90;;;;;;4993518;28;20052;-88
2024/01/28 06:43:45;;;;;;;16.83;8.87;;;0.20;99.90;;;;;;5006926;28;20049;-87
2024/01/28 06:46:12;;;;;;;16.77;8.67;;;0.10;99.90;;;;;;5011266;28;20040;-88
2024/01/28 06:48:38;;;;;;;17.50;9.00;;;0.10;99.90;;;;;;4989762;28;20462;-87
2024/01/28 06:51:05;;;;;;;16.97;9.23;;;0.10;99.90;;;;;;5000108;28;20528;-87
2024/01/28 06:53:30;;;;;;;16.57;8.93;;;0.10;99.90;;;;;;4986362;28;20038;-87
2024/01/28 06:55:56;;;;;;;16.10;9.47;;;0.10;99.90;;;;;;4985668;28;20104;-87
2024/01/28 06:58:21;;;;;;;18.67;8.90;;;0.10;99.90;;;;;;4995482;28;20041;-88
2024/01/28 07:00:47;;;;;;;15.00;8.60;;;0.00;99.90;;;;;;5015065;28;20033;-87
2024/01/28 07:03:13;;;;;;;15.40;8.73;;;0.10;99.90;;;;;;5010171;28;20040;-86
2024/01/28 07:05:38;;;;;;;15.10;8.80;;;0.10;99.90;;;;;;5016152;28;20116;-87
2024/01/28 07:08:07;;;;;;;16.80;9.27;;;0.00;99.90;;;;;;5004418;28;20116;-88
2024/01/28 07:10:33;;;;;;;14.40;8.50;;;0.00;99.90;;;;;;5011065;28;20041;-88
2024/01/28 07:12:59;;;;;;;18.60;9.10;;;0.00;99.90;;;;;;5015596;28;20048;-87
2024/01/28 07:15:24;;;;;;;14.27;9.17;;;0.00;99.90;;;;;;5016338;28;20574;-87
2024/01/28 07:17:50;;;;;;;16.80;8.90;;;0.00;99.90;;;;;;5000007;28;20108;-88
2024/01/28 07:20:16;;;;;;;14.73;8.27;;;0.00;99.90;;;;;;5001152;28;20119;-88
2024/01/28 07:22:42;;;;;;;16.97;8.97;;;0.00;99.90;;;;;;5019412;28;20108;-88
2024/01/28 07:25:08;;;;;;;17.30;9.00;;;0.00;99.90;;;;;;5019908;28;20121;-88
2024/01/28 07:27:33;;;;;;;17.70;9.10;;;0.00;99.90;;;;;;5017415;28;20029;-88
2024/01/28 07:29:59;;;;;;;14.07;8.90;;;0.00;99.90;;;;;;5012334;28;20029;-88
2024/01/28 07:32:25;;;;;;;21.60;9.07;;;0.00;99.90;;;;;;5019889;28;20036;-88
2024/01/28 07:34:50;;;;;;;15.50;8.60;;;0.00;99.90;;;;;;5011128;28;20116;-87
2024/01/28 07:37:16;;;;;;;15.30;9.20;;;0.00;99.90;;;;;;5013047;28;20040;-88
2024/01/28 07:39:41;;;;;;;15.47;8.40;;;0.00;99.90;;;;;;5000247;28;20029;-88
2024/01/28 07:42:07;;;;;;;16.23;8.57;;;0.00;99.90;;;;;;5014959;28;20036;-87
2024/01/28 07:44:33;;;;;;;16.90;8.87;;;0.10;99.90;;;;;;5015125;28;20040;-88
2024/01/28 07:46:59;;;;;;;13.60;8.70;;;0.10;99.90;;;;;;5011258;28;20042;-87
2024/01/28 07:49:25;;;;;;;20.70;9.37;;;0.10;99.90;;;;;;4998750;28;20116;-88
2024/01/28 07:51:50;;;;;;;14.73;8.50;;;0.10;99.90;;;;;;4999392;28;20787;-88
2024/01/28 07:54:16;;;;;;;13.80;8.23;;;0.20;99.90;;;;;;5012674;28;20037;-88
2024/01/28 07:56:41;;;;;;;14.90;9.00;;;0.20;99.90;;;;;;5012702;28;20107;-87
2024/01/28 07:59:07;;;;;;;13.87;8.47;;;0.30;99.90;;;;;;5013402;28;20044;-88
2024/01/28 08:01:33;;;;;;;17.13;8.20;;;0.30;99.90;;;;;;5000765;28;20034;-88
2024/01/28 08:03:59;;;;;;;20.87;8.57;;;0.30;99.90;;;;;;4991592;28;20029;-88
2024/01/28 08:06:25;;;;;;;14.03;8.47;;;0.30;99.90;;;;;;5013376;28;20131;-88
2024/01/28 08:08:52;;;;;;;17.50;8.73;;;0.40;99.90;;;;;;5005287;28;20045;-89
2024/01/28 08:11:19;;;;;;;19.20;9.00;;;0.40;99.90;;;;;;5013307;28;20060;-88
2024/01/28 08:13:45;;;;;;;15.40;7.87;;;0.30;99.90;;;;;;4996976;28;20045;-88
2024/01/28 08:16:10;;;;;;;13.83;8.33;;;0.40;99.90;;;;;;4996604;28;20494;-88
2024/01/28 08:18:38;;;;;;;15.53;8.83;;;0.40;99.90;;;;;;5009649;28;20130;-87
2024/01/28 08:21:04;;;;;;;17.60;8.50;;;0.40;99.90;;;;;;4990787;28;20119;-88
2024/01/28 08:23:30;;;;;;;13.60;8.53;;;0.40;99.90;;;;;;5007622;28;20064;-87
2024/01/28 08:25:56;;;;;;;18.13;9.33;;;0.50;99.90;;;;;;5014013;28;20044;-88
2024/01/28 08:28:22;;;;;;;13.60;8.00;;;0.50;99.90;;;;;;5014164;28;20408;-87
2024/01/28 08:30:48;;;;;;;16.17;8.70;;;0.50;99.90;;;;;;5016215;28;20045;-88
2024/01/28 08:33:14;;;;;;;13.70;8.47;;;1.00;99.90;;;;;;5017062;28;20029;-87
2024/01/28 08:35:39;;;;;;;15.63;7.93;;;0.60;99.90;;;;;;5020389;28;20033;-87
2024/01/28 08:38:05;;;;;;;17.20;7.97;;;0.60;99.90;;;;;;4999516;28;20116;-85
2024/01/28 08:40:31;;;;;;;17.17;8.30;;;0.70;99.90;;;;;;5013447;28;20072;-87
2024/01/28 08:42:57;;;;;;;13.97;8.00;;;0.80;99.90;;;;;;5001374;28;20057;-86
2024/01/28 08:45:23;;;;;;;12.93;7.90;;;0.80;99.90;;;;;;5008998;28;20038;-86
2024/01/28 08:47:49;;;;;;;15.03;8.23;;;0.80;99.90;;;;;;5012983;28;20041;-86
2024/01/28 08:50:15;;;;;;;14.23;7.70;;;0.90;99.90;;;;;;5002705;28;20045;-86
2024/01/28 08:52:42;;;;;;;13.30;7.80;;;0.90;99.90;;;;;;5014030;28;20076;-86
2024/01/28 08:55:08;;;;;;;13.90;7.40;;;1.00;99.90;;;;;;4986113;28;20034;-85
2024/01/28 08:57:34;;;;;;;12.43;7.60;;;1.00;99.90;;;;;;4995272;28;20045;-84
2024/01/28 09:00:00;;;;;;;12.83;7.20;;;1.10;99.90;;;;;;4978365;28;20034;-86
2024/01/28 09:02:26;;;;;;;14.03;7.80;;;1.10;99.90;;;;;;4994752;28;20030;-86
2024/01/28 09:04:52;;;;;;;14.03;7.10;;;1.20;99.90;;;;;;4996223;28;20053;-85
2024/01/28 09:07:17;;;;;;;13.80;7.30;;;1.30;99.90;;;;;;4980900;28;20061;-86
2024/01/28 09:09:43;;;;;;;12.83;7.30;;;1.30;99.90;;;;;;5000113;28;20134;-86
2024/01/28 09:12:09;;;;;;;10.40;6.60;;;1.40;99.90;;;;;;5016950;28;20049;-86
2024/01/28 09:14:35;;;;;;;11.40;7.40;;;1.40;99.90;;;;;;5016159;28;20041;-86
2024/01/28 09:17:02;;;;;;;10.77;6.63;;;1.50;99.90;;;;;;5016592;28;20041;-86
2024/01/28 09:19:27;;;;;;;12.77;7.33;;;1.60;99.90;;;;;;5000059;28;20492;-86
2024/01/28 09:21:54;;;;;;;13.23;6.83;;;1.60;99.90;;;;;;5000041;28;20120;-86
2024/01/28 09:24:19;;;;;;;14.40;6.93;;;1.70;99.90;;;;;;4999904;28;20103;-87
2024/01/28 09:26:45;;;;;;;19.50;7.23;;;1.80;99.90;;;;;;5016440;28;20041;-86
2024/01/28 09:29:10;;;;;;;12.10;6.57;;;1.80;99.90;;;;;;5000098;28;20551;-86
2024/01/28 09:31:36;;;;;;;11.73;7.17;;;1.90;99.90;;;;;;5016027;28;20041;-84
2024/01/28 09:34:01;;;;;;;12.97;6.57;;;2.00;99.90;;;;;;5016255;28;20128;-86
2024/01/28 09:36:27;;;;;;;9.50;5.93;;;2.10;99.90;;;;;;4999827;28;20037;-86
2024/01/28 09:38:53;;;;;;;11.27;6.40;;;2.10;99.90;;;;;;5016328;28;20033;-86
2024/01/28 09:41:25;;;;;;;13.43;6.35;;;2.20;99.90;;;;;;5016129;28;20073;-87
2024/01/28 09:43:50;;;;;;;12.20;6.25;;;2.40;99.90;;;;;;4981922;28;20042;-87
2024/01/28 09:46:17;;;;;;;10.88;6.50;;;2.50;99.90;;;;;;5007732;28;20103;-87
2024/01/28 09:48:46;;;;;;;10.05;5.82;;;3.80;99.90;;;;;;4999997;28;20068;-87
2024/01/28 09:51:13;;;;;;;9.23;5.63;;;2.70;99.90;;;;;;5008023;28;20037;-87
2024/01/28 09:53:40;;;;;;;10.32;5.72;;;2.90;99.90;;;;;;5023604;28;20037;-87
2024/01/28 09:56:06;;;;;;;10.48;5.13;;;3.00;99.90;;;;;;5014597;28;20052;-87
2024/01/28 09:58:32;;;;;;;10.23;5.65;;;3.10;99.90;;;;;;4997403;28;20087;-87
2024/01/28 10:00:58;;;;;;;13.70;5.95;;;3.30;99.90;;;;;;4999870;28;20116;-88
2024/01/28 10:03:23;;;;;;;9.88;4.88;;;3.40;99.90;;;;;;4998260;28;20037;-87
2024/01/28 10:05:49;;;;;;;9.27;5.00;;;3.50;99.90;;;;;;4997493;28;20045;-87
2024/01/28 10:08:15;;;;;;;9.77;4.75;;;4.80;99.90;;;;;;5015496;28;20516;-87
2024/01/28 10:10:41;;;;;;;10.73;5.10;;;3.60;99.90;;;;;;5015683;28;20049;-88
2024/01/28 10:13:07;;;;;;;10.63;4.80;;;3.60;99.90;;;;;;4999247;28;20037;-86
2024/01/28 10:15:33;;;;;;;8.65;4.35;;;4.00;99.90;;;;;;4980669;28;20379;-88
2024/01/28 10:17:59;;;;;;;8.85;4.18;;;3.80;99.90;;;;;;4997560;28;20041;-88
2024/01/28 10:20:26;;;;;;;7.63;4.60;;;3.90;99.90;;;;;;4980000;28;20133;-87
2024/01/28 10:22:53;;;;;;;11.43;4.50;;;4.70;99.90;;;;;;5003572;28;20087;-88
2024/01/28 10:25:19;;;;;;;10.23;4.60;;;5.00;99.90;;;;;;5015096;28;20037;-88
2024/01/28 10:27:46;;;;;;;8.27;4.47;;;5.20;99.90;;;;;;4999226;28;20049;-87
2024/01/28 10:30:14;;;;;;;8.45;4.20;;;4.40;99.90;;;;;;5015562;28;20532;-88
2024/01/28 10:32:41;;;;;;;11.65;4.50;;;4.50;99.90;;;;;;5015382;28;20092;-88
2024/01/28 10:35:08;;;;;;;9.50;4.00;;;4.70;99.90;;;;;;5015076;28;20128;-87
2024/01/28 10:37:34;;;;;;;6.53;3.63;;;4.70;99.90;;;;;;5013938;28;20037;-88
2024/01/28 10:40:07;;;;;;;8.60;3.65;;;5.90;99.90;;;;;;4998001;28;20382;-88
2024/01/28 10:42:39;;;;;;;7.40;3.35;;;4.90;99.90;;;;;;5015257;28;20140;-88
2024/01/28 10:45:16;;;;;;;6.80;3.22;;;5.00;99.90;;;;;;5014974;28;20069;-86
2024/01/28 10:47:51;;;;;;;6.65;2.88;;;5.30;99.90;;;;;;5015442;28;20400;-87
2024/01/28 10:50:20;;;;;;;6.30;3.38;;;5.70;99.90;;;;;;4989173;28;20049;-88
2024/01/28 10:52:47;;;;;;;6.47;3.10;;;5.20;99.90;;;;;;5017058;28;20095;-87
2024/01/28 10:55:14;;;;;;;11.85;3.53;;;6.60;99.90;;;;;;5018561;28;20098;-87
2024/01/28 10:57:40;;;;;;;9.00;3.60;;;6.50;99.90;;;;;;5019196;28;20044;-88
2024/01/28 11:00:06;;;;;;;5.63;3.70;;;6.30;99.90;;;;;;4998982;28;20044;-88
2024/01/28 11:02:35;;;;;;;7.85;3.20;;;5.60;99.90;;;;;;5000465;28;20036;-88
2024/01/28 11:05:03;;;;;;;5.88;2.90;;;6.60;99.90;;;;;;5000753;28;20041;-90
2024/01/28 11:07:29;;;;;;;8.02;3.00;;;5.70;99.90;;;;;;5014653;28;20164;-89
2024/01/28 11:09:57;;;;;;;8.00;3.40;;;6.10;99.90;;;;;;5003922;28;20041;-89
2024/01/28 11:12:23;;;;;;;4.93;3.08;;;6.90;99.90;;;;;;5008508;28;20041;-89
2024/01/28 11:14:51;;;;;;;6.35;3.10;;;6.70;99.90;;;;;;4990860;28;20421;-89
2024/01/28 11:17:17;;;;;;;6.82;3.35;;;6.60;99.90;;;;;;5005288;28;20550;-88
2024/01/28 11:19:43;;;;;;;4.60;2.97;;;7.40;99.90;;;;;;5008118;28;20122;-88
2024/01/28 11:22:16;;;;;;;5.97;3.05;;;7.40;99.90;;;;;;5005917;28;20034;-87
2024/01/28 11:24:56;;;;;;;6.45;2.78;;;6.30;99.90;;;;;;5006028;28;20515;-88
2024/01/28 11:27:22;;;;;;;6.50;2.92;;;7.00;99.90;;;;;;5007118;28;20052;-88
2024/01/28 11:29:54;;;;;;;4.93;2.40;;;7.50;99.90;;;;;;5007224;28;20038;-88
2024/01/28 11:32:32;;;;;;;7.13;2.90;;;7.50;99.90;;;;;;5010014;28;20045;-87
2024/01/28 11:34:57;;;;;;;6.75;2.80;;;7.10;99.90;;;;;;4997165;28;20056;-88
2024/01/28 11:37:27;;;;;;;5.40;2.80;;;7.60;99.90;;;;;;4998816;28;20033;-88
2024/01/28 11:40:04;;;;;;;6.05;2.85;;;7.80;99.90;;;;;;5008851;28;20207;-87
2024/01/28 11:42:30;;;;;;;4.75;2.33;;;6.80;99.90;;;;;;5007305;28;20552;-89
2024/01/28 11:44:56;;;;;;;6.60;3.00;;;7.40;99.90;;;;;;4994900;28;20044;-88
2024/01/28 11:47:22;;;;;;;7.50;2.90;;;7.90;99.90;;;;;;5010629;28;20396;-88
2024/01/28 11:49:48;;;;;;;4.50;2.50;;;7.50;99.90;;;;;;4993548;28;20500;-88
2024/01/28 11:52:15;;;;;;;5.45;2.88;;;7.00;99.90;;;;;;5012585;28;20121;-88
2024/01/28 11:54:44;;;;;;;6.55;2.42;;;7.90;99.90;;;;;;5012829;28;20512;-89
2024/01/28 11:57:10;;;;;;;5.10;2.58;;;7.60;99.90;;;;;;4998310;28;20033;-88
2024/01/28 11:59:38;;;;;;;8.27;2.92;;;7.60;99.90;;;;;;4999243;28;20394;-88
2024/01/28 12:02:05;;;;;;;5.82;2.65;;;7.90;99.90;;;;;;5007156;28;20042;-88
2024/01/28 12:04:31;;;;;;;4.88;2.67;;;8.30;99.90;;;;;;5006819;28;20401;-88
2024/01/28 12:06:57;;;;;;;7.18;2.63;;;7.90;99.90;;;;;;5013608;28;20180;-88
2024/01/28 12:09:23;;;;;;;4.68;2.47;;;8.30;99.90;;;;;;5002446;28;20052;-89
2024/01/28 12:11:50;;;;;;;6.40;2.63;;;8.60;99.90;;;;;;5014807;28;20049;-89
2024/01/28 12:14:15;;;;;;;6.68;2.60;;;8.20;99.90;;;;;;5011822;28;20095;-88
2024/01/28 12:16:42;;;;;;;5.00;2.22;;;8.10;99.90;;;;;;5009922;28;20451;-88
2024/01/28 12:19:12;;;;;;;6.00;2.45;;;8.10;99.90;;;;;;5007730;28;20062;-91
2024/01/28 12:21:38;;;;;;;5.30;2.15;;;8.50;99.90;;;;;;5002924;28;20161;-89
2024/01/28 12:24:04;;;;;;;5.45;2.55;;;8.90;99.90;;;;;;5007969;28;20042;-89
2024/01/28 12:26:32;;;;;;;7.05;2.97;;;8.10;99.90;;;;;;5005841;28;20488;-88
2024/01/28 12:28:58;;;;;;;4.93;2.72;;;8.80;99.90;;;;;;5023807;28;20048;-87
2024/01/28 12:31:24;;;;;;;6.88;2.67;;;9.40;99.90;;;;;;4993541;28;20048;-90
2024/01/28 12:33:50;;;;;;;9.05;2.95;;;8.30;99.90;;;;;;4996408;28;20037;-89
2024/01/28 12:36:16;;;;;;;5.65;2.78;;;8.40;99.90;;;;;;4987414;28;20490;-88
2024/01/28 12:38:42;;;;;;;6.72;2.90;;;9.00;99.90;;;;;;4997829;28;20033;-88
2024/01/28 12:41:09;;;;;;;5.55;2.80;;;9.50;99.90;;;;;;5017345;28;20115;-89
2024/01/28 12:43:37;;;;;;;4.60;2.80;;;8.70;99.90;;;;;;4988004;28;20437;-88